Time;durP1;ratioP1;P1;durP2;ratioP2;P2;SDS_P1;SDS_P2;PMS_P1;PMS_P2;Temp;Humidity;BMP_temperature;BMP_pressure;BME280_temperature;BME280_humidity;BME280_pressure;Samples;Min_cycle;Max_cycle;Signal;HPM_P1;HPM_P2
2023/03/16 00:00:48;;;;;;;25.10;2.38;;;1.60;99.90;;;-0.09;95.62;101412.25;4950821;28;20044;-80
2023/03/16 00:03:19;;;;;;;27.83;2.33;;;1.60;99.90;;;-0.11;95.43;101412.25;4917774;28;20045;-80
2023/03/16 00:05:51;;;;;;;19.65;2.38;;;1.60;99.90;;;-0.09;95.76;101414.84;4903445;28;20046;-81
2023/03/16 00:08:23;;;;;;;22.05;3.03;;;1.60;99.90;;;-0.10;95.33;101424.34;4948408;28;20069;-78
2023/03/16 00:10:49;;;;;;;24.38;2.92;;;1.60;99.90;;;-0.11;95.37;101413.97;4969728;28;20130;-79
2023/03/16 00:13:17;;;;;;;23.88;2.70;;;1.60;99.90;;;-0.07;95.38;101413.13;4975865;28;20046;-80
2023/03/16 00:16:15;;;;;;;19.00;2.40;;;1.60;99.90;;;-0.09;95.14;101409.66;4988629;28;20061;-80
2023/03/16 00:18:46;;;;;;;24.65;2.58;;;1.50;99.90;;;-0.12;95.29;101409.66;4992545;28;20052;-80
2023/03/16 00:21:13;;;;;;;21.33;2.03;;;1.60;99.90;;;-0.12;95.48;101412.25;4962985;28;20041;-80
2023/03/16 00:23:41;;;;;;;15.73;1.95;;;1.60;99.90;;;-0.13;95.37;101416.56;4974958;28;20048;-80
2023/03/16 00:26:08;;;;;;;22.48;2.50;;;1.60;99.90;;;-0.12;95.25;101413.09;4957240;28;20025;-80
2023/03/16 00:28:43;;;;;;;21.33;1.80;;;;;;;-0.11;95.30;101412.25;4953308;28;20044;-80
2023/03/16 00:31:11;;;;;;;20.17;2.70;;;1.50;99.90;;;-0.13;95.60;101407.91;4970181;28;20030;-80
2023/03/16 00:33:47;;;;;;;26.90;2.60;;;1.50;99.90;;;-0.12;95.61;101409.66;4946610;28;20130;-80
2023/03/16 00:36:12;;;;;;;32.83;2.53;;;1.50;99.90;;;-0.12;95.44;101410.50;4960309;28;20099;-81
2023/03/16 00:38:46;;;;;;;28.23;2.97;;;1.60;99.90;;;-0.08;95.89;101408.81;4961632;28;20037;-80
2023/03/16 00:41:14;;;;;;;22.92;2.28;;;1.60;99.90;;;-0.06;96.08;101412.28;4949923;28;20047;-82
2023/03/16 00:43:42;;;;;;;22.25;2.53;;;1.50;99.90;;;-0.05;96.21;101420.06;4957229;28;20025;-79
2023/03/16 00:46:25;;;;;;;22.13;2.35;;;1.60;99.90;;;-0.03;96.40;101430.44;4981385;28;20041;-80
2023/03/16 00:48:54;;;;;;;23.83;2.50;;;1.60;99.90;;;-0.03;96.12;101420.06;4979417;28;20057;-80
2023/03/16 00:51:21;;;;;;;21.95;2.40;;;1.60;99.90;;;-0.05;96.23;101421.78;4953231;28;20108;-80
2023/03/16 00:53:48;;;;;;;27.63;2.13;;;1.60;99.90;;;-0.05;95.99;101425.22;4982954;28;20387;-80
2023/03/16 00:56:15;;;;;;;19.08;2.35;;;1.60;99.90;;;-0.06;95.84;101426.09;4984894;28;20057;-81
2023/03/16 00:58:49;;;;;;;19.45;2.30;;;1.60;99.90;;;-0.05;96.13;101434.72;4954275;28;20061;-80
2023/03/16 01:01:18;;;;;;;20.45;2.13;;;1.60;99.90;;;-0.08;96.12;101442.47;4964202;28;20045;-80
2023/03/16 01:03:45;;;;;;;23.65;2.33;;;1.60;99.90;;;-0.10;96.27;101436.41;4941738;28;20041;-80
2023/03/16 01:06:16;;;;;;;22.98;2.63;;;1.60;99.90;;;-0.14;96.20;101435.50;4964238;28;20676;-80
2023/03/16 01:08:42;;;;;;;27.48;3.13;;;1.60;99.90;;;-0.11;96.76;101439.84;4981877;28;20045;-80
2023/03/16 01:11:16;;;;;;;31.60;2.33;;;1.60;99.90;;;-0.09;96.62;101444.19;4957602;28;20044;-81
2023/03/16 01:13:46;;;;;;;31.30;2.53;;;1.60;99.90;;;-0.07;96.63;101447.66;5013330;28;20076;-81
2023/03/16 01:16:22;;;;;;;30.60;2.08;;;1.60;99.90;;;-0.05;96.67;101447.66;4965730;28;20596;-79
2023/03/16 01:18:48;;;;;;;18.67;3.05;;;1.60;99.90;;;-0.05;96.28;101445.09;4947504;28;20034;-79
2023/03/16 01:21:15;;;;;;;25.05;2.88;;;1.60;99.90;;;-0.06;96.72;101440.78;4970039;28;20479;-80
2023/03/16 01:23:42;;;;;;;21.95;2.95;;;1.60;99.90;;;-0.04;96.77;101444.25;4974280;28;20112;-80
2023/03/16 01:26:16;;;;;;;24.52;2.72;;;1.60;99.90;;;-0.01;96.34;101449.44;4981602;28;20044;-81
2023/03/16 01:28:43;;;;;;;30.08;2.67;;;1.60;99.90;;;0.06;96.77;101452.94;5010293;28;20040;-81
2023/03/16 01:31:13;;;;;;;25.65;2.00;;;1.70;99.90;;;0.12;96.84;101443.50;4951939;28;20064;-80
2023/03/16 01:33:44;;;;;;;25.27;2.10;;;1.70;99.90;;;0.15;96.43;101440.06;4930795;28;20124;-80
2023/03/16 01:36:14;;;;;;;22.20;2.30;;;1.70;99.90;;;0.14;96.32;101441.78;4943763;28;20079;-80
2023/03/16 01:38:48;;;;;;;16.13;2.38;;;1.80;99.90;;;0.17;96.42;101434.06;4960581;28;20505;-79
2023/03/16 01:41:19;;;;;;;20.85;2.00;;;;;;;0.23;96.21;101438.41;4957179;28;20167;-81
2023/03/16 01:43:52;;;;;;;21.42;2.78;;;1.90;99.90;;;0.30;96.06;101434.13;4992837;22;20081;-81
2023/03/16 01:46:24;;;;;;;19.00;2.50;;;1.90;99.90;;;0.39;96.42;101431.63;4966916;28;20038;-80
2023/03/16 01:52:09;;;;;;;19.63;2.50;;;2.10;99.90;;;0.55;96.03;101441.19;4935480;28;20048;-81
2023/03/16 01:55:01;;;;;;;29.95;2.85;;;2.20;99.90;;;0.61;95.73;101441.25;4918436;28;20090;-81
2023/03/16 01:57:35;;;;;;;17.33;2.13;;;2.20;99.90;;;0.67;95.20;101439.53;4930307;28;20019;-80
2023/03/16 02:00:19;;;;;;;20.15;2.75;;;2.30;99.90;;;0.69;94.88;101438.72;4909031;28;20044;-80
2023/03/16 02:02:55;;;;;;;18.50;2.67;;;2.30;99.90;;;0.76;94.58;101442.19;4937345;28;20038;-80
2023/03/16 02:05:35;;;;;;;19.00;2.33;;;2.30;99.90;;;0.76;94.23;101442.19;4959069;28;20062;-79
2023/03/16 02:08:11;;;;;;;24.60;2.35;;;2.30;99.90;;;0.72;94.27;101440.44;4895312;28;20539;-80
2023/03/16 02:10:40;;;;;;;17.90;2.63;;;2.30;99.90;;;0.66;94.11;101436.09;4914700;28;20092;-81
2023/03/16 02:13:11;;;;;;;18.83;2.47;;;2.30;99.90;;;0.61;93.60;101436.06;4900924;28;20036;-80
2023/03/16 02:15:37;;;;;;;33.63;3.58;;;2.20;99.90;;;0.59;94.32;101435.19;4892884;28;20491;-81
2023/03/16 02:18:06;;;;;;;22.10;2.40;;;2.20;99.90;;;0.58;94.33;101441.25;4917019;28;20075;-80
2023/03/16 02:21:15;;;;;;;25.20;2.40;;;2.20;99.90;;;0.60;94.25;101447.31;4877497;28;20031;-79
2023/03/16 02:23:43;;;;;;;17.35;2.03;;;1.70;99.90;;;0.61;94.21;101458.53;4970911;28;20034;-79
2023/03/16 02:26:16;;;;;;;24.55;2.20;;;2.10;99.90;;;0.51;93.79;101451.53;4927807;28;20043;-80
2023/03/16 02:28:55;;;;;;;33.72;3.10;;;2.10;99.90;;;0.45;94.36;101449.78;4951581;28;20043;-80
2023/03/16 02:31:21;;;;;;;21.25;2.25;;;2.10;99.90;;;0.37;94.37;101446.28;4902553;28;20046;-79
2023/03/16 02:33:49;;;;;;;23.52;3.00;;;2.00;99.90;;;0.34;94.15;101448.84;4887961;28;20419;-80
2023/03/16 02:36:23;;;;;;;13.77;1.73;;;2.00;99.90;;;0.29;94.48;101459.16;4919683;28;20035;-80
2023/03/16 02:38:49;;;;;;;16.10;2.38;;;1.90;99.90;;;0.26;94.71;101455.69;4900369;28;20395;-80
2023/03/16 02:41:19;;;;;;;24.10;2.53;;;1.90;99.90;;;0.20;94.85;101465.16;4921428;28;20042;-78
2023/03/16 02:44:09;;;;;;;17.42;2.03;;;1.90;99.90;;;0.19;94.83;101478.97;4942045;28;20046;-79
2023/03/16 02:46:37;;;;;;;23.48;2.17;;;1.80;99.90;;;0.14;94.93;101475.44;4924317;28;20041;-80
2023/03/16 02:49:12;;;;;;;19.20;2.13;;;1.80;99.90;;;0.12;94.95;101471.97;4949481;28;20038;-79
2023/03/16 02:51:38;;;;;;;18.60;2.07;;;1.80;99.90;;;0.10;95.94;101485.78;4946096;28;20038;-79
2023/03/16 02:54:03;;;;;;;22.02;2.42;;;1.80;99.90;;;0.09;95.50;101479.75;4912803;28;20101;-80
2023/03/16 02:56:30;;;;;;;15.30;1.98;;;1.70;99.90;;;0.06;95.96;101482.28;4926550;28;20039;-78
2023/03/16 02:58:56;;;;;;;14.25;1.90;;;1.70;99.90;;;0.06;96.02;101487.47;4897336;28;20046;-79
2023/03/16 03:01:31;;;;;;;22.60;2.25;;;1.70;99.90;;;0.04;95.96;101485.72;4915080;28;20045;-79
2023/03/16 03:03:57;;;;;;;21.27;2.20;;;1.70;99.90;;;0.01;96.44;101489.16;4916410;28;20434;-80
2023/03/16 03:06:24;;;;;;;21.73;1.90;;;1.70;99.90;;;0.02;96.15;101480.53;4944194;28;20125;-81
2023/03/16 03:09:17;;;;;;;28.42;2.40;;;1.70;99.90;;;-0.03;96.21;101490.84;4911181;28;20446;-80
2023/03/16 03:11:44;;;;;;;19.42;1.90;;;1.60;99.90;;;-0.07;96.21;101493.38;4899268;28;20038;-79
2023/03/16 03:14:18;;;;;;;27.88;2.63;;;1.60;99.90;;;-0.08;95.95;101489.94;4911465;28;20050;-79
2023/03/16 03:16:45;;;;;;;30.80;2.40;;;1.60;99.90;;;-0.13;96.38;101498.50;4888511;28;20039;-79
2023/03/16 03:19:12;;;;;;;17.58;2.17;;;1.50;99.90;;;-0.14;96.20;101501.97;4890862;28;20054;-78
2023/03/16 03:21:43;;;;;;;24.88;3.15;;;1.50;99.90;;;-0.17;96.25;101512.25;4944304;28;20026;-79
2023/03/16 03:24:09;;;;;;;20.77;2.08;;;1.50;99.90;;;-0.21;96.68;101511.38;4898877;28;20038;-79
2023/03/16 03:26:36;;;;;;;18.90;2.30;;;1.50;99.90;;;-0.25;96.69;101507.88;4933082;28;20594;-78
2023/03/16 03:29:03;;;;;;;27.25;2.55;;;1.50;99.90;;;-0.24;97.14;101517.41;4922289;28;20117;-79
2023/03/16 03:31:34;;;;;;;23.25;2.47;;;1.40;99.90;;;-0.23;96.68;101519.13;4917029;28;20134;-78
2023/03/16 03:34:05;;;;;;;29.48;2.22;;;1.50;99.90;;;-0.14;96.96;101528.72;4888803;28;20941;-77
2023/03/16 03:36:32;;;;;;;29.98;2.70;;;1.50;99.90;;;-0.04;96.53;101537.44;4941792;28;20121;-78
2023/03/16 03:39:03;;;;;;;17.65;2.60;;;1.60;99.90;;;0.04;96.34;101545.28;4920113;28;22187;-78
2023/03/16 03:41:31;;;;;;;20.65;2.45;;;1.60;99.90;;;0.10;96.50;101541.03;4949191;28;20059;-78
2023/03/16 03:43:59;;;;;;;26.20;2.65;;;1.70;99.90;;;0.10;96.24;101535.84;4932501;28;20046;-79
2023/03/16 03:46:34;;;;;;;17.48;2.33;;;1.70;99.90;;;0.06;95.79;101549.63;4940099;28;20069;-79
2023/03/16 03:49:03;;;;;;;22.45;2.50;;;1.60;99.90;;;0.01;96.04;101545.25;4911110;28;20042;-78
2023/03/16 03:51:35;;;;;;;22.45;2.45;;;1.60;99.90;;;-0.12;95.75;101550.31;4919881;28;20097;-78
2023/03/16 03:54:00;;;;;;;18.45;2.10;;;1.50;99.90;;;-0.21;95.65;101548.47;4940583;28;20111;-79
2023/03/16 03:56:26;;;;;;;20.05;2.20;;;1.40;99.90;;;-0.26;95.70;101554.44;4932769;28;20088;-78
2023/03/16 03:58:52;;;;;;;22.65;2.38;;;1.40;99.90;;;-0.31;95.53;101557.00;4918844;28;20110;-78
2023/03/16 04:01:18;;;;;;;29.38;3.10;;;1.30;99.90;;;-0.35;95.58;101560.41;4918097;28;20061;-78
2023/03/16 04:03:44;;;;;;;10.40;1.75;;;1.30;99.90;;;-0.40;95.47;101569.84;4922449;28;20066;-78
2023/03/16 04:06:15;;;;;;;18.95;2.58;;;1.20;99.90;;;-0.48;95.71;101563.69;4927388;28;20084;-77
2023/03/16 04:08:41;;;;;;;28.50;2.70;;;1.10;99.90;;;-0.55;95.70;101561.88;4939548;28;20040;-77
2023/03/16 04:11:07;;;;;;;28.05;2.88;;;1.10;99.90;;;-0.64;95.64;101570.41;4925806;28;20019;-78
2023/03/16 04:13:32;;;;;;;22.95;2.47;;;1.00;99.90;;;-0.70;96.12;101559.97;4893072;28;20053;-78
2023/03/16 04:16:08;;;;;;;18.77;2.65;;;1.00;99.90;;;-0.73;96.66;101567.69;4920382;28;20049;-77
2023/03/16 04:18:45;;;;;;;23.42;2.28;;;0.90;99.90;;;-0.77;97.05;101566.78;4913702;28;20050;-78
2023/03/16 04:21:16;;;;;;;27.38;2.55;;;0.90;99.90;;;-0.81;97.25;101575.34;4934469;28;20103;-77
2023/03/16 04:23:43;;;;;;;26.90;2.75;;;0.90;99.90;;;-0.84;98.08;101564.97;4930951;28;20545;-77
2023/03/16 04:26:14;;;;;;;15.48;2.03;;;0.80;99.90;;;-0.87;97.63;101577.84;4925358;28;20041;-76
2023/03/16 04:28:40;;;;;;;23.85;2.90;;;0.80;99.90;;;-0.90;97.90;101573.50;4916916;28;20511;-76
2023/03/16 04:31:09;;;;;;;26.15;2.88;;;0.70;99.90;;;-0.94;97.65;101565.69;4919776;28;20142;-77
2023/03/16 04:33:36;;;;;;;28.23;2.65;;;0.70;99.90;;;-0.97;98.01;101568.22;4918464;28;20098;-77
2023/03/16 04:36:11;;;;;;;26.17;2.83;;;0.70;99.90;;;-1.00;97.91;101566.44;4917842;28;20186;-77
2023/03/16 04:38:37;;;;;;;14.77;2.15;;;0.60;99.90;;;-1.04;97.93;101572.41;4894076;28;20027;-77
2023/03/16 04:41:08;;;;;;;32.78;3.03;;;0.60;99.90;;;-1.05;97.94;101584.50;4929925;28;20582;-77
2023/03/16 04:43:34;;;;;;;26.20;3.05;;;0.60;99.90;;;-1.07;97.61;101583.59;4926543;28;20070;-77
2023/03/16 04:46:02;;;;;;;24.55;2.53;;;0.60;99.90;;;-1.12;97.86;101598.16;4960550;28;20054;-76
2023/03/16 04:48:31;;;;;;;24.70;2.50;;;0.50;99.90;;;-1.18;98.03;101586.88;4895759;28;20031;-75
2023/03/16 04:51:02;;;;;;;23.55;2.58;;;0.50;99.90;;;-1.21;98.06;101597.16;4918490;28;20534;-76
2023/03/16 04:53:30;;;;;;;27.23;3.17;;;0.40;99.90;;;-1.28;97.57;101598.75;4918998;28;20066;-76
2023/03/16 04:55:57;;;;;;;22.20;2.65;;;0.40;99.90;;;-1.34;98.06;101596.06;4941329;28;20034;-75
2023/03/16 04:58:24;;;;;;;15.23;2.35;;;0.30;99.90;;;-1.39;97.08;101597.72;4949418;28;20034;-76
2023/03/16 05:00:56;;;;;;;20.67;3.20;;;0.30;99.90;;;-1.43;97.66;101603.69;4945622;28;20034;-75
2023/03/16 05:03:22;;;;;;;15.20;2.00;;;0.30;99.90;;;-1.45;97.54;101603.66;4919749;28;20113;-76
2023/03/16 05:05:49;;;;;;;21.25;2.67;;;0.20;99.90;;;-1.49;97.82;101607.03;4932776;28;20125;-76
2023/03/16 05:08:15;;;;;;;19.23;2.70;;;0.20;99.90;;;-1.50;98.10;101611.31;4947814;28;20046;-76
2023/03/16 05:10:47;;;;;;;29.98;2.60;;;0.20;99.90;;;-1.51;98.25;101612.19;4926420;28;20117;-75
2023/03/16 05:13:15;;;;;;;30.60;3.50;;;0.20;99.90;;;-1.53;97.84;101610.44;4934476;28;20519;-75
2023/03/16 05:15:41;;;;;;;25.60;2.95;;;0.10;99.90;;;-1.54;98.64;101619.88;4939111;28;20042;-75
2023/03/16 05:18:07;;;;;;;32.08;3.53;;;0.10;99.90;;;-1.53;98.30;101616.47;4906330;28;20154;-76
2023/03/16 05:20:33;;;;;;;30.10;3.13;;;0.10;99.90;;;-1.52;98.46;101612.16;4946884;28;20513;-76
2023/03/16 05:22:59;;;;;;;27.67;3.33;;;0.10;99.90;;;-1.53;98.67;101621.63;4960096;28;20489;-75
2023/03/16 05:25:25;;;;;;;24.38;2.58;;;0.10;99.90;;;-1.53;98.75;101615.59;4948966;28;20147;-75
2023/03/16 05:27:55;;;;;;;22.38;2.85;;;0.10;99.90;;;-1.54;98.73;101616.41;4929129;28;20616;-76
2023/03/16 05:30:21;;;;;;;35.92;3.80;;;0.10;99.90;;;-1.54;98.87;101616.41;4949832;28;20150;-75
2023/03/16 05:32:47;;;;;;;18.35;2.67;;;0.10;99.90;;;-1.52;98.51;101627.66;4933384;28;20053;-75
2023/03/16 05:35:13;;;;;;;27.52;3.10;;;0.10;99.90;;;-1.51;98.29;101619.94;4945607;28;20428;-75
2023/03/16 05:37:43;;;;;;;21.08;2.72;;;0.10;99.90;;;-1.47;98.27;101632.06;4958258;28;20054;-75
2023/03/16 05:40:16;;;;;;;20.13;2.90;;;0.10;99.90;;;-1.42;98.49;101632.13;4943103;28;20041;-75
2023/03/16 05:42:47;;;;;;;23.63;2.80;;;0.20;99.90;;;-1.36;98.61;101644.28;4954974;28;20117;-75
2023/03/16 05:45:16;;;;;;;15.60;2.42;;;0.20;99.90;;;-1.33;98.09;101650.38;4970611;28;20049;-75
2023/03/16 05:47:43;;;;;;;24.05;3.13;;;0.20;99.90;;;-1.27;98.48;101654.78;4927749;28;20039;-75
2023/03/16 05:50:11;;;;;;;37.90;3.20;;;0.20;99.90;;;-1.22;98.29;101658.31;4921367;28;20047;-75
2023/03/16 05:52:46;;;;;;;23.55;2.38;;;0.30;99.90;;;-1.14;98.17;101659.31;4921747;28;20053;-75
2023/03/16 05:55:15;;;;;;;17.63;2.47;;;0.30;99.90;;;-1.02;97.76;101660.34;4948611;28;20042;-75
2023/03/16 05:57:41;;;;;;;29.02;3.53;;;0.40;99.90;;;-0.98;97.99;101663.00;4949588;28;20385;-74
2023/03/16 06:00:14;;;;;;;31.17;3.03;;;0.50;99.90;;;-0.75;97.62;101673.72;4942376;28;20177;-75
2023/03/16 06:02:48;;;;;;;29.75;2.88;;;0.60;99.90;;;-0.49;97.04;101670.63;4933620;28;20047;-75
2023/03/16 06:05:15;;;;;;;28.55;3.17;;;0.70;99.90;;;-0.21;96.41;101677.06;4946929;28;20097;-75
2023/03/16 06:07:41;;;;;;;26.48;2.67;;;1.00;99.90;;;1.56;94.25;101689.09;4962987;28;20066;-75
2023/03/16 06:10:09;;;;;;;22.98;2.80;;;1.40;99.90;;;2.25;91.21;101686.81;4939722;28;20269;-75
2023/03/16 06:12:34;;;;;;;29.58;3.55;;;1.70;99.90;;;1.96;88.61;101686.69;4956130;28;20709;-75
2023/03/16 06:15:01;;;;;;;21.75;2.63;;;2.20;99.90;;;4.31;84.99;101713.50;4931770;28;20101;-75
2023/03/16 06:17:28;;;;;;;24.08;2.47;;;2.60;99.90;;;4.17;80.32;101699.69;4961084;28;20046;-75
2023/03/16 06:19:56;;;;;;;14.27;2.70;;;3.00;99.90;;;4.07;78.18;101700.59;4953941;28;20058;-75
2023/03/16 06:22:22;;;;;;;21.15;2.75;;;3.30;99.90;;;5.05;76.38;101712.16;4938958;28;20508;-75
2023/03/16 06:24:48;;;;;;;27.48;3.13;;;3.80;99.90;;;6.80;71.63;101725.88;4934200;28;20038;-75
2023/03/16 06:27:14;;;;;;;25.80;2.90;;;4.50;99.90;;;8.69;66.41;101730.25;4951591;28;20112;-75
2023/03/16 06:29:40;;;;;;;22.05;2.55;;;5.20;99.90;;;7.26;64.85;101711.22;4981535;28;20038;-75
2023/03/16 06:32:13;;;;;;;20.75;3.08;;;5.40;99.90;;;5.58;68.29;101694.28;4972135;28;20042;-75
2023/03/16 06:34:40;;;;;;;31.33;4.13;;;5.40;99.90;;;6.00;69.80;101715.63;4932868;28;20030;-75
2023/03/16 06:37:06;;;;;;;24.60;2.63;;;5.60;99.90;;;8.81;66.34;101744.84;4921373;28;20050;-75
2023/03/16 06:39:32;;;;;;;27.98;2.65;;;6.20;99.90;;;9.80;62.86;101756.41;4961718;28;20038;-76
2023/03/16 06:42:07;;;;;;;18.40;2.80;;;7.20;99.90;;;12.97;56.73;101774.94;4929143;28;20038;-75
2023/03/16 06:44:33;;;;;;;22.35;2.50;;;8.60;99.90;;;16.09;50.84;101811.91;4944236;28;20042;-75
2023/03/16 06:46:59;;;;;;;19.08;3.10;;;10.20;99.90;;;18.49;45.51;101814.13;4959002;28;20035;-75
2023/03/16 06:49:27;;;;;;;18.63;3.45;;;11.70;99.90;;;20.07;41.89;101834.97;4943570;28;20463;-76
2023/03/16 06:51:57;;;;;;;22.38;3.40;;;13.30;99.90;;;21.38;39.62;101852.38;4936827;28;20039;-76
2023/03/16 06:54:23;;;;;;;20.65;3.10;;;14.50;99.90;;;22.05;37.42;101868.75;4944755;28;20038;-75
2023/03/16 06:56:50;;;;;;;17.42;3.00;;;15.60;99.90;;;23.07;36.85;101883.09;4948284;28;20039;-75
2023/03/16 06:59:16;;;;;;;15.40;3.03;;;16.60;99.90;;;23.80;35.64;101904.03;4953494;28;20539;-75
2023/03/16 07:01:50;;;;;;;26.15;3.58;;;17.50;99.90;;;24.33;34.90;101914.75;4933725;28;20043;-76
2023/03/16 07:04:16;;;;;;;22.05;3.38;;;18.30;99.50;;;24.91;33.58;101920.44;4957140;28;20038;-75
2023/03/16 07:06:42;;;;;;;15.25;2.72;;;19.00;98.40;;;25.40;32.90;101928.69;4955574;28;20048;-75
2023/03/16 07:09:09;;;;;;;17.60;3.00;;;19.70;96.80;;;25.71;32.12;101933.97;4936035;28;20022;-75
2023/03/16 07:11:35;;;;;;;17.15;3.10;;;20.30;96.30;;;26.02;31.92;101950.03;4964094;28;20037;-75
2023/03/16 07:14:01;;;;;;;19.38;3.42;;;20.80;94.60;;;26.15;31.40;101953.28;4948161;28;20053;-76
2023/03/16 07:16:30;;;;;;;17.88;3.10;;;21.20;94.20;;;26.48;30.60;101965.47;4945745;28;20027;-75
2023/03/16 07:18:56;;;;;;;17.83;3.72;;;21.70;93.70;;;26.64;30.38;101970.28;4991136;28;20096;-75
2023/03/16 07:21:22;;;;;;;18.38;3.45;;;22.10;93.20;;;26.84;30.40;101978.31;4896477;28;20713;-76
2023/03/16 07:23:50;;;;;;;15.35;3.08;;;22.60;91.90;;;26.93;29.98;101980.13;4947567;28;20070;-76
2023/03/16 07:26:19;;;;;;;15.85;3.35;;;22.90;91.70;;;26.86;30.05;101993.38;4926524;28;20053;-76
2023/03/16 07:28:45;;;;;;;17.20;3.25;;;23.10;89.70;;;26.62;29.74;101996.59;4961684;28;20038;-76
2023/03/16 07:31:11;;;;;;;16.30;3.25;;;23.30;90.00;;;26.49;30.01;101999.56;4973713;28;20046;-75
2023/03/16 07:33:37;;;;;;;15.60;3.40;;;23.50;89.20;;;26.52;29.85;102009.22;4968318;28;20149;-75
2023/03/16 07:36:04;;;;;;;16.05;2.95;;;23.70;88.90;;;26.47;29.85;102014.22;4951125;28;20496;-75
2023/03/16 07:38:32;;;;;;;12.98;3.10;;;23.90;88.10;;;26.57;29.66;102024.03;4973052;28;20081;-75
2023/03/16 07:40:59;;;;;;;16.13;2.97;;;24.30;87.40;;;26.62;29.50;102026.28;4969911;28;20041;-75
2023/03/16 07:43:25;;;;;;;19.83;3.53;;;24.50;86.10;;;26.60;29.51;102028.28;4955217;28;20067;-75
2023/03/16 07:45:52;;;;;;;19.40;3.17;;;24.80;84.40;;;26.40;29.73;102035.53;4947064;28;20043;-75
2023/03/16 07:48:19;;;;;;;19.08;3.25;;;25.00;84.80;;;26.48;29.69;102043.78;4976499;28;20528;-75
2023/03/16 07:50:49;;;;;;;13.80;2.78;;;25.20;83.30;;;26.59;29.46;102046.34;4975530;28;20070;-74
2023/03/16 07:53:15;;;;;;;23.75;3.55;;;25.60;82.70;;;26.70;29.58;102050.75;4962557;28;20031;-75
2023/03/16 07:55:42;;;;;;;16.75;3.20;;;25.90;82.10;;;26.81;29.50;102065.94;4942323;28;20039;-75
2023/03/16 07:58:09;;;;;;;18.55;2.83;;;26.10;80.40;;;26.82;29.21;102064.06;4971155;28;20054;-75
2023/03/16 08:00:36;;;;;;;13.32;3.08;;;26.40;79.70;;;26.81;29.28;102076.75;4957860;28;20048;-76
2023/03/16 08:03:02;;;;;;;19.05;3.17;;;26.50;77.80;;;26.66;29.04;102065.53;4940206;28;20530;-75
2023/03/16 08:05:28;;;;;;;9.25;2.38;;;26.50;77.20;;;26.67;29.25;102072.63;4949764;28;20499;-76
2023/03/16 08:07:57;;;;;;;10.73;2.60;;;26.70;77.20;;;26.53;29.09;102083.88;4968252;28;20507;-76
2023/03/16 08:10:24;;;;;;;16.30;3.05;;;26.90;77.70;;;26.70;29.11;102079.63;4955850;28;20531;-75
2023/03/16 08:12:50;;;;;;;14.18;3.05;;;27.10;77.00;;;26.84;29.12;102086.41;4959528;28;20058;-75
2023/03/16 08:15:16;;;;;;;13.50;3.05;;;27.30;76.30;;;26.89;29.17;102084.09;4988358;28;20031;-76
2023/03/16 08:17:42;;;;;;;12.60;2.85;;;27.50;75.40;;;26.97;28.84;102095.03;4966347;28;20129;-73
2023/03/16 08:20:12;;;;;;;12.43;2.65;;;27.60;75.10;;;26.92;29.16;102091.94;4947301;28;20046;-75
2023/03/16 08:22:38;;;;;;;13.90;2.38;;;27.80;74.00;;;26.81;28.59;102095.66;4987924;28;20039;-75
2023/03/16 08:25:09;;;;;;;13.93;2.83;;;27.80;72.20;;;26.70;28.91;102104.78;4956764;28;20038;-75
2023/03/16 08:27:36;;;;;;;12.85;2.53;;;27.70;70.10;;;26.17;28.93;102100.59;4984396;28;20110;-75
2023/03/16 08:30:07;;;;;;;13.55;2.60;;;27.30;70.00;;;25.21;29.55;102104.69;4977439;28;20059;-75
2023/03/16 08:32:33;;;;;;;13.77;2.85;;;26.70;68.20;;;24.16;30.16;102101.84;4954454;28;20442;-74
2023/03/16 08:34:59;;;;;;;9.55;2.22;;;26.10;70.40;;;23.73;31.14;102091.88;4971734;28;20046;-74
2023/03/16 08:37:26;;;;;;;11.85;2.42;;;25.70;71.20;;;23.80;30.72;102095.84;4975886;28;20049;-74
2023/03/16 08:39:53;;;;;;;11.30;2.47;;;25.70;70.30;;;23.97;31.07;102096.28;4966015;28;20046;-75
2023/03/16 08:42:19;;;;;;;16.25;2.67;;;25.60;72.00;;;23.97;30.91;102102.50;4961682;28;20027;-74
2023/03/16 08:44:46;;;;;;;12.57;2.63;;;25.40;69.80;;;23.44;30.63;102100.47;4971008;28;20074;-74
2023/03/16 08:47:13;;;;;;;11.52;2.45;;;25.30;72.00;;;23.41;31.63;102107.91;4972827;28;20027;-74
2023/03/16 08:49:40;;;;;;;15.32;2.50;;;25.10;70.80;;;23.29;31.21;102101.69;4951706;28;20043;-74
2023/03/16 08:52:09;;;;;;;11.68;2.67;;;24.90;70.70;;;22.99;31.27;102110.28;4945915;28;20404;-74
2023/03/16 08:54:35;;;;;;;11.05;2.47;;;24.60;70.60;;;22.72;31.44;102106.06;4949897;28;20517;-75
2023/03/16 08:57:01;;;;;;;11.10;2.65;;;24.30;72.00;;;22.45;32.09;102106.34;4954966;28;20035;-74
2023/03/16 08:59:28;;;;;;;7.97;1.83;;;24.00;71.30;;;22.22;32.13;102102.63;4956349;28;20399;-74
2023/03/16 09:01:54;;;;;;;9.32;2.30;;;23.70;69.90;;;21.90;32.06;102114.78;4967839;28;21195;-74
2023/03/16 09:04:20;;;;;;;9.98;2.50;;;23.30;72.90;;;21.46;32.94;102102.72;4965755;28;20043;-74
2023/03/16 09:06:50;;;;;;;11.70;2.85;;;22.90;73.90;;;21.19;33.82;102099.31;4988681;28;20041;-73
2023/03/16 09:09:16;;;;;;;8.25;2.20;;;22.40;71.90;;;20.32;33.82;102100.72;4968108;28;20133;-74
2023/03/16 09:11:44;;;;;;;13.45;2.58;;;21.90;74.70;;;20.17;34.29;102095.44;4966251;28;20052;-74
2023/03/16 09:14:14;;;;;;;11.57;2.35;;;21.40;75.60;;;19.89;35.06;102088.31;4966474;28;20050;-74
2023/03/16 09:16:40;;;;;;;10.65;2.65;;;20.90;75.80;;;19.51;35.09;102086.25;4968079;28;20400;-74
2023/03/16 09:19:10;;;;;;;9.90;2.58;;;20.50;77.20;;;19.15;35.60;102084.06;4961980;28;20049;-74
2023/03/16 09:21:39;;;;;;;12.90;2.50;;;19.70;77.80;;;18.10;36.72;102073.31;4988944;28;20042;-74
2023/03/16 09:24:07;;;;;;;14.32;2.22;;;19.10;79.30;;;17.57;37.67;102070.00;4960226;28;20574;-74
2023/03/16 09:26:41;;;;;;;12.23;2.40;;;18.60;80.90;;;17.31;38.08;102071.44;4976772;28;20038;-74
2023/03/16 09:29:07;;;;;;;13.13;2.67;;;18.20;83.30;;;17.07;39.33;102065.63;4971710;28;20038;-74
2023/03/16 09:31:33;;;;;;;8.75;2.40;;;17.80;82.90;;;16.61;39.60;102064.34;4971964;28;20041;-74
2023/03/16 09:34:08;;;;;;;12.68;2.28;;;17.30;83.80;;;16.22;40.14;102045.97;4930645;28;20132;-75
2023/03/16 09:36:34;;;;;;;14.27;2.90;;;16.60;85.60;;;15.19;41.89;102042.81;4971893;28;20030;-74
2023/03/16 09:39:02;;;;;;;13.68;2.58;;;16.10;86.40;;;14.52;42.60;102034.19;4995183;28;20050;-74
2023/03/16 09:41:47;;;;;;;11.80;2.40;;;15.50;88.50;;;13.85;44.83;102026.34;4954513;28;20047;-75
2023/03/16 09:44:50;;;;;;;11.40;2.58;;;14.90;90.40;;;13.35;45.66;102022.09;4976987;28;20110;-74
2023/03/16 09:47:29;;;;;;;13.85;3.00;;;14.50;90.90;;;13.08;46.64;102026.56;4983181;28;20035;-75
2023/03/16 09:49:59;;;;;;;9.10;2.80;;;14.30;90.70;;;12.74;46.38;102009.25;4974596;28;20049;-75
2023/03/16 09:53:23;;;;;;;15.20;2.67;;;14.00;90.90;;;12.44;46.53;102017.34;4948446;28;20039;-75
2023/03/16 09:56:17;;;;;;;10.60;2.42;;;13.80;91.70;;;12.23;47.22;102015.44;4906636;28;20473;-75
2023/03/16 10:05:30;;;;;;;12.52;3.03;;;12.70;92.50;;;11.22;49.42;102004.41;4956893;28;20169;-75
2023/03/16 10:08:19;;;;;;;15.98;2.67;;;12.60;93.40;;;11.10;50.41;101994.25;4986130;28;20436;-75
2023/03/16 10:11:17;;;;;;;12.00;2.45;;;12.50;93.70;;;11.13;50.57;102002.03;4943707;28;20123;-75
2023/03/16 10:14:19;;;;;;;9.05;2.65;;;12.40;93.20;;;10.95;50.02;101998.16;4959428;28;20058;-75
2023/03/16 10:17:16;;;;;;;12.00;2.92;;;12.30;93.60;;;11.04;50.15;102005.81;4974050;28;20043;-75
2023/03/16 10:19:56;;;;;;;8.88;2.53;;;12.20;93.60;;;10.93;50.53;102010.53;4973158;28;20071;-75
2023/03/16 10:22:30;;;;;;;11.95;2.22;;;12.20;93.80;;;10.85;50.64;102000.19;4953973;28;20044;-76
2023/03/16 10:25:35;;;;;;;14.27;2.33;;;12.10;93.40;;;10.51;50.27;102000.22;4975609;28;20032;-77
2023/03/16 10:28:05;;;;;;;11.18;2.45;;;12.00;93.80;;;10.70;50.58;102000.59;4965563;28;20069;-76
2023/03/16 10:30:36;;;;;;;12.10;2.50;;;12.00;93.80;;;10.87;49.89;102002.78;4952041;28;20038;-76
2023/03/16 10:33:49;;;;;;;8.65;2.13;;;12.10;94.10;;;10.83;50.73;101993.22;4952639;28;20088;-77
2023/03/16 10:36:33;;;;;;;9.88;2.00;;;12.10;93.80;;;10.83;49.31;101996.72;4955711;28;20038;-76